Time;durP1;ratioP1;P1;durP2;ratioP2;P2;SDS_P1;SDS_P2;PMS_P1;PMS_P2;Temp;Humidity;BMP_temperature;BMP_pressure;BME280_temperature;BME280_humidity;BME280_pressure;Samples;Min_cycle;Max_cycle;Signal;HPM_P1;HPM_P2
2019/11/11 00:02:18;;;;;;;4.61;4.21;;;;;;;20.00;49.25;100534.98;;;;-55
2019/11/11 00:05:18;;;;;;;4.63;4.18;;;;;;;20.00;49.36;100529.45;;;;-55
2019/11/11 00:08:18;;;;;;;4.51;4.11;;;;;;;19.98;49.24;100523.71;;;;-55
2019/11/11 00:11:18;;;;;;;4.53;4.13;;;;;;;19.96;49.35;100517.66;;;;-55
2019/11/11 00:14:18;;;;;;;4.61;4.21;;;;;;;19.96;49.21;100519.97;;;;-55
2019/11/11 00:17:18;;;;;;;4.95;4.50;;;;;;;19.94;49.30;100515.13;;;;-55
2019/11/11 00:20:18;;;;;;;4.65;4.25;;;;;;;19.93;49.42;100517.36;;;;-54
2019/11/11 00:23:18;;;;;;;4.49;4.09;;;;;;;19.92;49.39;100515.09;;;;-54
2019/11/11 00:26:18;;;;;;;4.67;4.19;;;;;;;19.90;49.35;100509.02;;;;-54
2019/11/11 00:29:18;;;;;;;4.66;4.25;;;;;;;19.90;49.39;100505.46;;;;-54
2019/11/11 00:32:18;;;;;;;4.75;4.33;;;;;;;19.88;49.42;100500.05;;;;-54
2019/11/11 00:35:18;;;;;;;4.55;4.15;;;;;;;19.88;49.42;100499.50;;;;-55
2019/11/11 00:38:18;;;;;;;4.85;4.33;;;;;;;19.87;49.52;100499.62;;;;-55
2019/11/11 00:41:18;;;;;;;4.53;4.13;;;;;;;19.84;49.53;100499.54;;;;-56
2019/11/11 00:44:18;;;;;;;4.87;4.43;;;;;;;19.84;49.51;100496.15;;;;-55
2019/11/11 00:47:18;;;;;;;4.54;4.14;;;;;;;19.83;49.58;100500.39;;;;-55
2019/11/11 00:50:18;;;;;;;4.52;4.12;;;;;;;19.82;49.49;100500.18;;;;-56
2019/11/11 00:53:18;;;;;;;4.71;4.29;;;;;;;19.81;49.56;100504.59;;;;-55
2019/11/11 00:56:18;;;;;;;4.81;4.31;;;;;;;19.79;49.52;100509.70;;;;-55
2019/11/11 00:59:18;;;;;;;4.69;4.27;;;;;;;19.79;49.41;100516.74;;;;-56
2019/11/11 01:02:18;;;;;;;4.63;4.23;;;;;;;19.77;49.45;100518.34;;;;-55
2019/11/11 01:05:18;;;;;;;4.34;3.94;;;;;;;19.78;49.49;100528.16;;;;-55
2019/11/11 01:08:18;;;;;;;4.65;4.18;;;;;;;19.76;49.45;100530.92;;;;-56
2019/11/11 01:11:18;;;;;;;4.48;4.08;;;;;;;19.75;49.55;100526.95;;;;-54
2019/11/11 01:14:18;;;;;;;4.61;4.19;;;;;;;19.76;49.42;100526.39;;;;-54
2019/11/11 01:17:18;;;;;;;4.49;4.09;;;;;;;19.74;49.36;100519.09;;;;-55
2019/11/11 01:20:18;;;;;;;4.48;4.08;;;;;;;19.71;49.45;100514.98;;;;-54
2019/11/11 01:23:18;;;;;;;4.63;4.23;;;;;;;19.72;49.50;100507.95;;;;-55
2019/11/11 01:26:18;;;;;;;4.63;4.23;;;;;;;19.70;49.57;100494.30;;;;-54
2019/11/11 01:29:31;;;;;;;4.65;3.82;;;;;;;19.70;49.55;100484.47;;;;-54
2019/11/11 01:32:18;;;;;;;4.19;3.73;;;;;;;19.69;49.33;100476.32;;;;-54
2019/11/11 01:35:18;;;;;;;4.49;4.09;;;;;;;19.69;49.53;100467.34;;;;-53
2019/11/11 01:38:18;;;;;;;4.23;3.85;;;;;;;19.67;49.58;100468.29;;;;-55
2019/11/11 01:41:18;;;;;;;4.59;4.19;;;;;;;19.66;49.52;100466.56;;;;-55
2019/11/11 01:44:18;;;;;;;4.77;4.25;;;;;;;19.66;49.46;100478.63;;;;-56
2019/11/11 01:47:18;;;;;;;4.36;3.99;;;;;;;19.65;49.45;100480.20;;;;-57
2019/11/11 01:50:18;;;;;;;4.34;3.94;;;;;;;19.64;49.68;100482.67;;;;-55
2019/11/11 01:53:18;;;;;;;4.41;4.01;;;;;;;19.64;49.59;100480.89;;;;-57
2019/11/11 01:56:18;;;;;;;4.39;3.99;;;;;;;19.64;49.60;100475.86;;;;-55
2019/11/11 01:59:18;;;;;;;4.47;4.07;;;;;;;19.62;49.59;100466.16;;;;-55
2019/11/11 02:02:18;;;;;;;4.27;3.90;;;;;;;19.61;49.60;100468.77;;;;-55
2019/11/11 02:05:18;;;;;;;4.32;3.95;;;;;;;19.60;49.63;100472.17;;;;-55
2019/11/11 02:08:18;;;;;;;4.31;3.91;;;;;;;19.60;49.63;100485.14;;;;-55
2019/11/11 02:11:18;;;;;;;4.29;3.89;;;;;;;19.59;49.60;100493.91;;;;-57
2019/11/11 02:14:18;;;;;;;4.23;3.83;;;;;;;19.58;49.66;100500.50;;;;-55
2019/11/11 02:17:18;;;;;;;4.30;3.91;;;;;;;19.57;49.58;100502.02;;;;-56
2019/11/11 02:20:18;;;;;;;4.15;3.85;;;;;;;19.56;49.50;100503.99;;;;-57
2019/11/11 02:23:18;;;;;;;3.85;3.55;;;;;;;19.55;49.57;100506.55;;;;-56
2019/11/11 02:26:18;;;;;;;4.16;3.76;;;;;;;19.55;49.64;100502.61;;;;-56
2019/11/11 02:29:18;;;;;;;4.18;3.83;;;;;;;19.54;49.63;100497.14;;;;-56
2019/11/11 02:32:18;;;;;;;4.21;3.81;;;;;;;19.54;49.46;100496.46;;;;-55
2019/11/11 02:35:18;;;;;;;4.13;3.78;;;;;;;19.53;49.60;100499.94;;;;-55
2019/11/11 02:38:18;;;;;;;3.99;3.69;;;;;;;19.52;49.57;100501.30;;;;-56
2019/11/11 02:41:18;;;;;;;3.99;3.61;;;;;;;19.50;49.59;100503.83;;;;-55
2019/11/11 02:44:18;;;;;;;4.01;3.71;;;;;;;19.51;49.59;100505.03;;;;-56
2019/11/11 02:47:18;;;;;;;3.87;3.54;;;;;;;19.50;49.57;100496.95;;;;-55
2019/11/11 02:50:18;;;;;;;4.21;3.81;;;;;;;19.49;49.61;100493.83;;;;-55
2019/11/11 02:53:18;;;;;;;3.99;3.69;;;;;;;19.48;49.58;100494.63;;;;-55
2019/11/11 02:56:18;;;;;;;3.95;3.63;;;;;;;19.47;49.54;100483.92;;;;-56
2019/11/11 02:59:18;;;;;;;4.15;3.79;;;;;;;19.46;49.60;100480.63;;;;-54
2019/11/11 03:02:18;;;;;;;4.16;3.79;;;;;;;19.46;49.58;100478.35;;;;-54
2019/11/11 03:05:18;;;;;;;4.15;3.79;;;;;;;19.46;49.59;100479.75;;;;-54
2019/11/11 03:08:18;;;;;;;4.17;3.77;;;;;;;19.45;49.47;100474.13;;;;-55
2019/11/11 03:11:18;;;;;;;3.99;3.65;;;;;;;19.46;49.57;100456.97;;;;-55
2019/11/11 03:14:31;;;;;;;4.10;3.75;;;;;;;19.44;49.58;100446.84;;;;-56
2019/11/11 03:17:18;;;;;;;4.04;3.64;;;;;;;19.43;49.60;100440.59;;;;-56
2019/11/11 03:20:18;;;;;;;3.95;3.65;;;;;;;19.41;49.53;100434.08;;;;-56
2019/11/11 03:23:18;;;;;;;3.75;3.45;;;;;;;19.39;49.53;100429.00;;;;-56
2019/11/11 03:26:18;;;;;;;3.97;3.67;;;;;;;19.39;49.66;100434.42;;;;-56
2019/11/11 03:29:18;;;;;;;4.35;3.78;;;;;;;19.39;49.59;100444.98;;;;-55
2019/11/11 03:32:18;;;;;;;3.96;3.66;;;;;;;19.39;49.62;100455.47;;;;-56
2019/11/11 03:35:18;;;;;;;3.71;3.41;;;;;;;19.39;49.69;100462.02;;;;-56
2019/11/11 03:38:18;;;;;;;3.80;3.50;;;;;;;19.38;49.54;100464.30;;;;-56
2019/11/11 03:41:18;;;;;;;3.89;3.59;;;;;;;19.38;49.58;100458.96;;;;-55
2019/11/11 03:44:18;;;;;;;3.81;3.51;;;;;;;19.37;49.62;100452.70;;;;-55
2019/11/11 03:47:18;;;;;;;3.73;3.43;;;;;;;19.37;49.57;100447.70;;;;-55
2019/11/11 03:50:18;;;;;;;3.67;3.37;;;;;;;19.35;49.59;100436.77;;;;-56
2019/11/11 03:53:18;;;;;;;3.69;3.39;;;;;;;19.36;49.64;100437.58;;;;-55
2019/11/11 03:56:18;;;;;;;3.49;3.19;;;;;;;19.35;49.57;100431.23;;;;-56
2019/11/11 03:59:18;;;;;;;3.88;3.55;;;;;;;19.34;49.58;100433.20;;;;-56
2019/11/11 04:02:18;;;;;;;3.68;3.38;;;;;;;19.33;49.59;100440.52;;;;-55
2019/11/11 04:05:18;;;;;;;3.72;3.42;;;;;;;19.33;49.59;100443.03;;;;-55
2019/11/11 04:08:18;;;;;;;3.85;3.55;;;;;;;19.32;49.63;100439.58;;;;-56
2019/11/11 04:11:18;;;;;;;3.91;3.61;;;;;;;19.30;49.51;100432.58;;;;-55
2019/11/11 04:14:18;;;;;;;3.69;3.39;;;;;;;19.30;49.60;100431.34;;;;-54
2019/11/11 04:17:18;;;;;;;3.87;3.56;;;;;;;19.29;49.54;100423.77;;;;-54
2019/11/11 04:20:18;;;;;;;3.53;3.23;;;;;;;19.29;49.56;100425.77;;;;-55
2019/11/11 04:23:18;;;;;;;3.85;3.55;;;;;;;19.28;49.58;100426.56;;;;-56
2019/11/11 04:26:18;;;;;;;3.65;3.33;;;;;;;19.29;49.54;100427.18;;;;-56
2019/11/11 04:29:18;;;;;;;3.63;3.33;;;;;;;19.26;49.55;100416.54;;;;-57
2019/11/11 04:32:18;;;;;;;3.89;3.50;;;;;;;19.26;49.59;100411.23;;;;-56
2019/11/11 04:35:18;;;;;;;3.50;3.20;;;;;;;19.27;49.62;100417.75;;;;-55
2019/11/11 04:38:18;;;;;;;3.59;3.29;;;;;;;19.26;49.53;100421.45;;;;-56
2019/11/11 04:41:18;;;;;;;3.97;3.67;;;;;;;19.26;49.42;100416.44;;;;-56
2019/11/11 04:44:18;;;;;;;3.77;3.47;;;;;;;19.26;49.44;100418.27;;;;-54
2019/11/11 04:47:18;;;;;;;3.50;3.20;;;;;;;19.26;49.49;100408.73;;;;-53
2019/11/11 04:50:18;;;;;;;3.49;3.19;;;;;;;19.28;49.49;100401.29;;;;-54
2019/11/11 04:53:18;;;;;;;3.33;3.03;;;;;;;19.30;49.40;100401.20;;;;-56
2019/11/11 04:56:18;;;;;;;3.49;3.19;;;;;;;19.32;49.47;100392.59;;;;-55
2019/11/11 04:59:18;;;;;;;3.37;3.07;;;;;;;19.36;49.77;100376.25;;;;-55
2019/11/11 05:02:18;;;;;;;3.36;3.06;;;;;;;19.38;49.92;100369.20;;;;-55
2019/11/11 05:05:18;;;;;;;3.29;3.00;;;;;;;19.41;49.95;100376.73;;;;-55
2019/11/11 05:08:18;;;;;;;3.35;3.07;;;;;;;19.44;49.85;100388.33;;;;-55
2019/11/11 05:11:18;;;;;;;3.19;2.91;;;;;;;19.49;49.75;100397.92;;;;-56
2019/11/11 05:14:18;;;;;;;3.15;2.88;;;;;;;19.53;49.68;100387.20;;;;-55
2019/11/11 05:17:18;;;;;;;3.00;2.79;;;;;;;19.56;49.71;100382.14;;;;-56
2019/11/11 05:20:18;;;;;;;2.99;2.79;;;;;;;19.60;49.77;100382.71;;;;-55
2019/11/11 05:23:18;;;;;;;2.85;2.65;;;;;;;19.64;49.77;100386.17;;;;-54
2019/11/11 05:26:18;;;;;;;3.05;2.84;;;;;;;19.68;49.81;100382.62;;;;-55
2019/11/11 05:29:18;;;;;;;2.97;2.77;;;;;;;19.71;49.77;100384.19;;;;-54
2019/11/11 05:32:18;;;;;;;2.91;2.71;;;;;;;19.75;49.84;100391.66;;;;-54
2019/11/11 05:35:18;;;;;;;3.10;2.80;;;;;;;19.78;49.88;100388.51;;;;-55
2019/11/11 05:38:18;;;;;;;2.95;2.75;;;;;;;19.81;49.87;100378.48;;;;-56
2019/11/11 05:41:18;;;;;;;2.93;2.73;;;;;;;19.85;49.87;100371.10;;;;-55
2019/11/11 05:44:18;;;;;;;2.89;2.69;;;;;;;19.87;49.89;100373.97;;;;-55
2019/11/11 05:47:18;;;;;;;2.79;2.59;;;;;;;19.90;49.88;100378.28;;;;-55
2019/11/11 05:50:18;;;;;;;2.99;2.79;;;;;;;19.93;49.86;100379.14;;;;-56
2019/11/11 05:53:18;;;;;;;3.13;2.84;;;;;;;19.95;49.93;100370.61;;;;-55
2019/11/11 05:56:18;;;;;;;2.91;2.71;;;;;;;19.97;49.86;100368.75;;;;-55
2019/11/11 05:59:18;;;;;;;2.87;2.67;;;;;;;20.00;49.85;100364.68;;;;-55
2019/11/11 06:02:18;;;;;;;2.90;2.66;;;;;;;20.02;49.85;100358.33;;;;-55
2019/11/11 06:05:18;;;;;;;2.97;2.77;;;;;;;20.03;49.83;100353.67;;;;-54
2019/11/11 06:08:18;;;;;;;3.16;2.88;;;;;;;20.05;49.82;100346.61;;;;-56
2019/11/11 06:11:18;;;;;;;2.87;2.67;;;;;;;20.07;49.79;100344.78;;;;-55
2019/11/11 06:14:18;;;;;;;3.06;2.86;;;;;;;20.08;49.73;100335.00;;;;-54
2019/11/11 06:17:18;;;;;;;2.88;2.68;;;;;;;20.10;49.79;100339.70;;;;-53
2019/11/11 06:20:18;;;;;;;3.02;2.73;;;;;;;20.11;49.73;100338.80;;;;-53
2019/11/11 06:23:18;;;;;;;2.80;2.60;;;;;;;20.11;49.76;100343.84;;;;-54
2019/11/11 06:26:18;;;;;;;3.37;2.45;;;;;;;20.15;49.74;100344.43;;;;-53
2019/11/11 06:29:18;;;;;;;3.84;2.54;;;;;;;20.15;49.78;100355.00;;;;-52
2019/11/11 06:32:18;;;;;;;3.11;2.51;;;;;;;20.18;49.91;100356.02;;;;-52
2019/11/11 06:35:18;;;;;;;2.99;2.59;;;;;;;20.21;49.96;100341.05;;;;-57
2019/11/11 06:38:18;;;;;;;2.73;2.53;;;;;;;20.23;50.08;100336.09;;;;-60
2019/11/11 06:41:18;;;;;;;3.06;2.73;;;;;;;20.25;49.99;100334.59;;;;-59
2019/11/11 06:44:18;;;;;;;5.67;2.70;;;;;;;20.27;50.00;100333.17;;;;-58
2019/11/11 06:47:18;;;;;;;3.15;2.73;;;;;;;20.31;49.93;100332.52;;;;-60
2019/11/11 06:50:18;;;;;;;2.79;2.59;;;;;;;20.32;50.04;100327.22;;;;-55
2019/11/11 06:53:18;;;;;;;2.84;2.60;;;;;;;20.34;50.19;100319.42;;;;-53
2019/11/11 06:56:18;;;;;;;2.71;2.50;;;;;;;20.36;50.17;100318.16;;;;-57
2019/11/11 06:59:18;;;;;;;2.77;2.57;;;;;;;20.38;50.11;100313.59;;;;-58
2019/11/11 07:02:18;;;;;;;3.01;2.64;;;;;;;20.39;50.25;100312.64;;;;-53
2019/11/11 07:05:18;;;;;;;3.06;2.77;;;;;;;20.42;50.13;100313.59;;;;-54
2019/11/11 07:08:18;;;;;;;3.10;2.80;;;;;;;20.43;50.21;100306.81;;;;-58
2019/11/11 07:11:18;;;;;;;3.19;2.53;;;;;;;20.44;50.09;100294.70;;;;-58
2019/11/11 07:14:18;;;;;;;2.87;2.67;;;;;;;20.45;49.99;100288.54;;;;-57
2019/11/11 07:17:18;;;;;;;3.69;2.74;;;;;;;20.46;49.85;100294.78;;;;-58
2019/11/11 07:20:18;;;;;;;2.88;2.61;;;;;;;20.46;49.79;100290.86;;;;-57
2019/11/11 07:23:18;;;;;;;3.02;2.69;;;;;;;20.48;50.02;100287.65;;;;-56
2019/11/11 07:26:18;;;;;;;2.89;2.69;;;;;;;20.49;49.93;100289.03;;;;-55
2019/11/11 07:29:18;;;;;;;3.13;2.78;;;;;;;20.51;49.99;100284.23;;;;-52
2019/11/11 07:32:18;;;;;;;2.89;2.69;;;;;;;20.52;49.96;100269.58;;;;-52
2019/11/11 07:35:18;;;;;;;3.10;2.80;;;;;;;20.53;49.77;100275.89;;;;-53
2019/11/11 07:38:18;;;;;;;4.39;2.63;;;;;;;20.53;49.80;100265.96;;;;-52
2019/11/11 07:41:18;;;;;;;4.33;3.63;;;;;;;20.51;47.73;100265.78;;;;-51
2019/11/11 07:44:18;;;;;;;7.65;3.67;;;;;;;20.53;48.34;100265.99;;;;-57
2019/11/11 07:47:18;;;;;;;6.60;3.49;;;;;;;20.52;48.51;100265.89;;;;-60
2019/11/11 07:50:18;;;;;;;5.65;3.53;;;;;;;20.53;47.95;100277.94;;;;-54
2019/11/11 07:53:18;;;;;;;12.72;3.76;;;;;;;20.49;47.60;100272.52;;;;-52
2019/11/11 07:56:18;;;;;;;7.21;3.69;;;;;;;20.52;47.55;100274.88;;;;-53
2019/11/11 07:59:18;;;;;;;4.58;3.23;;;;;;;20.54;48.04;100275.26;;;;-55
2019/11/11 08:02:18;;;;;;;6.13;3.25;;;;;;;20.56;48.50;100273.35;;;;-53
2019/11/11 08:05:18;;;;;;;5.51;3.21;;;;;;;20.56;48.50;100266.47;;;;-56
2019/11/11 08:08:18;;;;;;;4.69;3.00;;;;;;;20.57;48.58;100262.22;;;;-55
2019/11/11 08:11:18;;;;;;;5.60;3.23;;;;;;;20.58;48.67;100258.39;;;;-52
2019/11/11 08:14:18;;;;;;;4.20;3.27;;;;;;;20.59;48.66;100256.58;;;;-52
2019/11/11 08:17:18;;;;;;;6.75;3.20;;;;;;;20.60;48.72;100252.26;;;;-58
2019/11/11 08:20:18;;;;;;;3.51;3.04;;;;;;;20.60;48.80;100254.54;;;;-56
2019/11/11 08:23:18;;;;;;;8.01;3.54;;;;;;;20.58;48.48;100254.88;;;;-55
2019/11/11 08:26:18;;;;;;;5.95;3.70;;;;;;;20.57;47.13;100252.98;;;;-57
2019/11/11 08:29:18;;;;;;;7.27;3.29;;;;;;;20.56;47.76;100246.34;;;;-57
2019/11/11 08:32:18;;;;;;;6.17;3.61;;;;;;;20.57;46.92;100245.88;;;;-56
2019/11/11 08:35:18;;;;;;;4.92;3.31;;;;;;;20.59;47.56;100243.50;;;;-58
2019/11/11 08:38:18;;;;;;;3.78;3.19;;;;;;;20.59;47.93;100235.11;;;;-54
2019/11/11 08:41:18;;;;;;;4.07;3.09;;;;;;;20.60;48.09;100226.92;;;;-54
2019/11/11 08:44:18;;;;;;;4.07;3.19;;;;;;;20.61;48.15;100204.54;;;;-57
2019/11/11 08:47:18;;;;;;;4.19;3.06;;;;;;;20.63;48.23;100202.36;;;;-55
2019/11/11 08:50:18;;;;;;;9.41;3.09;;;;;;;20.64;48.32;100203.23;;;;-55
2019/11/11 08:53:18;;;;;;;3.49;3.19;;;;;;;20.65;48.38;100203.51;;;;-56
2019/11/11 08:56:18;;;;;;;4.63;3.10;;;;;;;20.66;48.38;100203.98;;;;-57
2019/11/11 08:59:18;;;;;;;6.85;3.56;;;;;;;20.68;48.47;100196.56;;;;-57
2019/11/11 09:02:18;;;;;;;6.16;3.97;;;;;;;20.68;47.50;100183.08;;;;-52
2019/11/11 09:05:18;;;;;;;8.40;3.43;;;;;;;20.68;48.11;100176.87;;;;-58
2019/11/11 09:08:18;;;;;;;4.38;3.38;;;;;;;20.71;48.31;100176.14;;;;-58
2019/11/11 09:11:18;;;;;;;5.91;3.54;;;;;;;20.72;48.38;100177.14;;;;-55
2019/11/11 09:14:18;;;;;;;4.39;3.08;;;;;;;20.73;48.44;100173.42;;;;-56
2019/11/11 09:17:18;;;;;;;5.48;3.31;;;;;;;20.74;48.45;100160.63;;;;-56
2019/11/11 09:20:18;;;;;;;4.43;3.37;;;;;;;20.75;48.43;100145.53;;;;-55
2019/11/11 09:23:18;;;;;;;6.17;3.17;;;;;;;20.76;48.55;100143.14;;;;-54
2019/11/11 09:26:18;;;;;;;4.19;2.98;;;;;;;20.77;48.55;100154.53;;;;-52
2019/11/11 09:29:18;;;;;;;3.77;2.91;;;;;;;20.78;48.52;100155.91;;;;-56
2019/11/11 09:32:18;;;;;;;4.41;3.21;;;;;;;20.79;48.59;100154.93;;;;-50
2019/11/11 09:35:18;;;;;;;3.70;3.05;;;;;;;20.79;48.73;100150.30;;;;-55
2019/11/11 09:38:18;;;;;;;3.88;3.09;;;;;;;20.82;48.76;100156.28;;;;-57
2019/11/11 09:41:18;;;;;;;4.28;3.09;;;;;;;20.83;48.80;100161.61;;;;-58
2019/11/11 09:44:18;;;;;;;4.50;2.99;;;;;;;20.83;48.79;100165.81;;;;-57
2019/11/11 09:47:18;;;;;;;4.51;3.18;;;;;;;20.85;48.50;100165.44;;;;-53
2019/11/11 09:50:18;;;;;;;5.74;3.20;;;;;;;20.84;48.48;100152.48;;;;-55
2019/11/11 09:53:18;;;;;;;4.11;3.29;;;;;;;20.82;48.19;100141.64;;;;-56
2019/11/11 09:56:18;;;;;;;5.42;3.03;;;;;;;20.84;48.27;100153.02;;;;-59
2019/11/11 09:59:18;;;;;;;5.19;3.31;;;;;;;20.84;48.21;100149.83;;;;-53
2019/11/11 10:02:18;;;;;;;3.53;3.15;;;;;;;20.86;48.25;100139.45;;;;-54
2019/11/11 10:05:18;;;;;;;3.29;2.98;;;;;;;20.88;48.45;100134.52;;;;-58
2019/11/11 10:08:18;;;;;;;4.10;3.01;;;;;;;20.89;48.55;100122.20;;;;-58
2019/11/11 10:11:18;;;;;;;3.58;2.99;;;;;;;20.91;48.67;100106.16;;;;-57
2019/11/11 10:14:18;;;;;;;3.41;2.98;;;;;;;20.93;48.63;100104.11;;;;-55
2019/11/11 10:17:18;;;;;;;5.49;3.08;;;;;;;20.94;48.62;100107.53;;;;-55
2019/11/11 10:20:18;;;;;;;3.07;2.77;;;;;;;20.95;48.60;100104.20;;;;-53
2019/11/11 10:23:18;;;;;;;4.15;3.01;;;;;;;20.97;48.64;100091.34;;;;-53
2019/11/11 10:26:18;;;;;;;5.81;3.14;;;;;;;21.00;48.66;100084.73;;;;-54
2019/11/11 10:29:18;;;;;;;4.39;3.06;;;;;;;21.04;48.45;100076.59;;;;-57
2019/11/11 10:32:18;;;;;;;4.99;3.20;;;;;;;21.04;48.55;100078.78;;;;-57
2019/11/11 10:35:18;;;;;;;3.89;2.84;;;;;;;21.04;48.61;100074.75;;;;-56
2019/11/11 10:38:18;;;;;;;2.99;2.68;;;;;;;21.05;48.56;100066.72;;;;-58
2019/11/11 10:41:18;;;;;;;3.29;2.89;;;;;;;21.06;48.51;100060.27;;;;-58
2019/11/11 10:44:18;;;;;;;3.36;2.71;;;;;;;21.06;48.57;100056.38;;;;-55
2019/11/11 10:47:18;;;;;;;3.82;2.96;;;;;;;21.09;48.69;100062.52;;;;-55
2019/11/11 10:50:18;;;;;;;4.16;2.85;;;;;;;21.12;48.64;100061.13;;;;-53
2019/11/11 10:53:18;;;;;;;3.34;2.71;;;;;;;21.15;48.58;100054.71;;;;-55
2019/11/11 10:56:18;;;;;;;3.19;2.89;;;;;;;21.17;48.70;100035.86;;;;-58
2019/11/11 10:59:18;;;;;;;3.41;2.91;;;;;;;21.18;48.65;100032.54;;;;-55
2019/11/11 11:02:18;;;;;;;4.55;2.87;;;;;;;21.21;48.56;100013.39;;;;-55
2019/11/11 11:05:18;;;;;;;4.07;3.09;;;;;;;21.22;48.48;99998.64;;;;-53
2019/11/11 11:08:18;;;;;;;4.57;3.28;;;;;;;21.26;48.08;99993.55;;;;-56
2019/11/11 11:11:18;;;;;;;4.35;3.58;;;;;;;21.28;47.24;99989.84;;;;-55
2019/11/11 11:14:18;;;;;;;3.51;3.21;;;;;;;21.29;47.87;99989.54;;;;-57
2019/11/11 11:17:18;;;;;;;4.12;3.32;;;;;;;21.30;48.13;99983.59;;;;-58
2019/11/11 11:20:18;;;;;;;4.44;3.01;;;;;;;21.31;48.11;99975.29;;;;-56
2019/11/11 11:23:18;;;;;;;4.27;2.93;;;;;;;21.30;48.14;99975.80;;;;-57
2019/11/11 11:26:18;;;;;;;4.15;3.03;;;;;;;21.30;48.14;99978.22;;;;-56
2019/11/11 11:29:18;;;;;;;3.91;3.09;;;;;;;21.29;48.28;99975.43;;;;-57
2019/11/11 11:32:18;;;;;;;4.01;2.72;;;;;;;21.29;48.21;99964.25;;;;-57
2019/11/11 11:35:18;;;;;;;4.57;2.76;;;;;;;21.30;48.24;99964.78;;;;-56
2019/11/11 11:38:18;;;;;;;4.24;2.90;;;;;;;21.30;48.28;99957.80;;;;-56
2019/11/11 11:41:18;;;;;;;5.51;3.05;;;;;;;21.30;48.23;99944.80;;;;-57
2019/11/11 11:44:18;;;;;;;3.72;2.76;;;;;;;21.31;48.25;99941.20;;;;-57
2019/11/11 11:47:18;;;;;;;3.54;2.91;;;;;;;21.31;48.25;99937.77;;;;-57
2019/11/11 11:50:18;;;;;;;3.04;2.76;;;;;;;21.31;48.30;99935.25;;;;-57
2019/11/11 11:53:18;;;;;;;3.20;2.90;;;;;;;21.32;48.28;99933.36;;;;-57
2019/11/11 11:56:18;;;;;;;3.79;2.89;;;;;;;21.32;48.31;99922.34;;;;-57
2019/11/11 11:59:18;;;;;;;3.17;2.72;;;;;;;21.33;48.35;99917.67;;;;-57
2019/11/11 12:02:18;;;;;;;3.23;2.93;;;;;;;21.33;48.28;99918.51;;;;-57
2019/11/11 12:05:18;;;;;;;3.30;2.96;;;;;;;21.32;48.32;99908.50;;;;-57
2019/11/11 12:08:18;;;;;;;2.99;2.70;;;;;;;21.34;48.35;99902.41;;;;-57
2019/11/11 12:11:18;;;;;;;3.75;2.86;;;;;;;21.33;48.31;99897.68;;;;-58
2019/11/11 12:14:18;;;;;;;3.01;2.73;;;;;;;21.34;48.34;99901.41;;;;-58
2019/11/11 12:17:18;;;;;;;2.80;2.60;;;;;;;21.34;48.31;99892.09;;;;-57
2019/11/11 12:20:18;;;;;;;3.67;2.93;;;;;;;21.34;48.27;99880.58;;;;-57
2019/11/11 12:23:18;;;;;;;3.06;2.78;;;;;;;21.35;48.26;99871.37;;;;-57
2019/11/11 12:26:18;;;;;;;3.09;2.79;;;;;;;21.36;48.33;99867.16;;;;-57
2019/11/11 12:29:18;;;;;;;3.03;2.73;;;;;;;21.36;48.33;99868.20;;;;-58
2019/11/11 12:32:18;;;;;;;2.99;2.77;;;;;;;21.37;48.33;99864.94;;;;-57
2019/11/11 12:35:18;;;;;;;3.20;2.73;;;;;;;21.38;48.32;99856.40;;;;-58
2019/11/11 12:38:18;;;;;;;2.96;2.66;;;;;;;21.38;48.29;99856.09;;;;-57
2019/11/11 12:41:17;;;;;;;2.99;2.68;;;;;;;21.39;48.29;99854.75;;;;-57
2019/11/11 12:44:18;;;;;;;3.16;2.82;;;;;;;21.39;48.14;99849.88;;;;-58
2019/11/11 12:47:18;;;;;;;3.30;2.67;;;;;;;21.39;48.25;99854.41;;;;-57
2019/11/11 12:50:18;;;;;;;2.91;2.71;;;;;;;21.39;48.26;99855.34;;;;-52
2019/11/11 12:53:18;;;;;;;3.04;2.67;;;;;;;21.40;48.22;99855.14;;;;-53
2019/11/11 12:56:18;;;;;;;2.82;2.61;;;;;;;21.40;48.27;99847.58;;;;-52
2019/11/11 13:02:18;;;;;;;2.70;2.50;;;;;;;21.41;48.30;99837.03;;;;-51
2019/11/11 13:05:18;;;;;;;3.09;2.65;;;;;;;21.42;48.29;99825.87;;;;-52
2019/11/11 13:08:18;;;;;;;2.72;2.52;;;;;;;21.42;48.34;99814.78;;;;-51
2019/11/11 13:11:18;;;;;;;2.69;2.49;;;;;;;21.42;48.28;99802.11;;;;-52
2019/11/11 13:14:18;;;;;;;2.78;2.58;;;;;;;21.43;48.23;99804.28;;;;-51
2019/11/11 13:17:18;;;;;;;2.64;2.44;;;;;;;21.44;48.35;99791.14;;;;-52
2019/11/11 13:20:18;;;;;;;3.24;2.80;;;;;;;21.45;48.27;99784.69;;;;-51
2019/11/11 13:23:18;;;;;;;2.79;2.59;;;;;;;21.45;48.21;99774.01;;;;-50
2019/11/11 13:26:18;;;;;;;2.70;2.50;;;;;;;21.44;48.26;99771.73;;;;-50
2019/11/11 13:29:18;;;;;;;6.16;2.85;;;;;;;21.45;48.10;99767.39;;;;-48
2019/11/11 13:32:18;;;;;;;4.39;3.23;;;;;;;21.44;46.66;99764.17;;;;-49
2019/11/11 13:35:18;;;;;;;3.73;3.32;;;;;;;21.45;46.14;99767.98;;;;-51
2019/11/11 13:38:18;;;;;;;3.43;2.84;;;;;;;21.46;47.12;99773.45;;;;-50
2019/11/11 13:41:18;;;;;;;4.23;2.81;;;;;;;21.46;47.46;99772.78;;;;-50
2019/11/11 13:44:18;;;;;;;4.45;2.65;;;;;;;21.47;47.63;99783.47;;;;-51
2019/11/11 13:47:18;;;;;;;3.53;2.78;;;;;;;21.47;47.72;99791.89;;;;-51
2019/11/11 13:50:18;;;;;;;3.41;2.59;;;;;;;21.48;47.92;99796.42;;;;-52
2019/11/11 13:53:18;;;;;;;2.59;2.39;;;;;;;21.48;47.93;99791.65;;;;-51
2019/11/11 13:56:18;;;;;;;2.89;2.67;;;;;;;21.48;47.99;99786.94;;;;-52
2019/11/11 13:59:17;;;;;;;5.81;2.80;;;;;;;21.51;48.05;99776.77;;;;-49
2019/11/11 14:02:18;;;;;;;4.11;3.03;;;;;;;21.54;47.88;99776.25;;;;-51
2019/11/11 14:05:18;;;;;;;2.86;2.64;;;;;;;21.56;47.96;99766.72;;;;-47
2019/11/11 14:08:18;;;;;;;2.97;2.63;;;;;;;21.58;48.00;99759.64;;;;-50
2019/11/11 14:11:18;;;;;;;2.81;2.61;;;;;;;21.59;48.12;99754.22;;;;-49
2019/11/11 14:14:17;;;;;;;2.82;2.62;;;;;;;21.60;48.16;99758.31;;;;-52
2019/11/11 14:17:18;;;;;;;4.49;2.95;;;;;;;21.64;48.18;99756.70;;;;-47
2019/11/11 14:20:18;;;;;;;4.47;2.73;;;;;;;21.64;48.24;99753.61;;;;-49
2019/11/11 14:23:18;;;;;;;2.68;2.48;;;;;;;21.68;48.16;99751.25;;;;-50
2019/11/11 14:26:18;;;;;;;3.55;2.77;;;;;;;21.71;48.08;99737.38;;;;-55
2019/11/11 14:29:18;;;;;;;3.15;2.82;;;;;;;21.72;48.01;99734.61;;;;-48
2019/11/11 14:32:18;;;;;;;6.92;3.15;;;;;;;21.75;47.93;99727.95;;;;-52
2019/11/11 14:35:17;;;;;;;6.89;2.95;;;;;;;21.74;47.96;99727.03;;;;-51
2019/11/11 14:38:18;;;;;;;5.17;2.59;;;;;;;21.75;47.98;99723.35;;;;-49
2019/11/11 14:41:17;;;;;;;3.72;2.85;;;;;;;21.74;48.12;99723.40;;;;-49
2019/11/11 14:44:18;;;;;;;3.03;2.55;;;;;;;21.76;48.15;99737.23;;;;-47
2019/11/11 14:47:18;;;;;;;4.87;2.81;;;;;;;21.77;48.12;99738.43;;;;-49
2019/11/11 14:50:18;;;;;;;3.47;2.75;;;;;;;21.77;48.14;99732.04;;;;-47
2019/11/11 14:53:17;;;;;;;3.79;2.67;;;;;;;21.78;48.19;99725.77;;;;-50
2019/11/11 14:56:17;;;;;;;3.97;2.69;;;;;;;21.78;48.23;99720.56;;;;-49
2019/11/11 14:59:18;;;;;;;5.06;2.75;;;;;;;21.80;48.29;99723.54;;;;-49
2019/11/11 15:02:18;;;;;;;3.19;2.74;;;;;;;21.79;48.31;99718.57;;;;-49
2019/11/11 15:05:18;;;;;;;4.75;2.68;;;;;;;21.79;48.17;99709.49;;;;-50
2019/11/11 15:08:18;;;;;;;4.01;2.69;;;;;;;21.80;48.16;99701.79;;;;-49
2019/11/11 15:11:18;;;;;;;3.96;2.65;;;;;;;21.82;48.02;99697.20;;;;-51
2019/11/11 15:14:55;;;;;;;3.18;2.70;;;;;;;21.82;48.12;99695.45;;;;-51
2019/11/11 15:20:18;;;;;;;2.77;2.57;;;;;;;21.84;48.20;99704.20;;;;-49
2019/11/11 15:23:17;;;;;;;4.87;2.69;;;;;;;21.85;48.02;99692.05;;;;-48
2019/11/11 15:26:18;;;;;;;3.62;2.75;;;;;;;21.86;48.20;99685.52;;;;-51
2019/11/11 15:29:18;;;;;;;4.22;2.76;;;;;;;21.88;48.13;99689.33;;;;-50
2019/11/11 15:32:18;;;;;;;4.38;2.71;;;;;;;21.86;48.21;99685.11;;;;-51
2019/11/11 15:35:17;;;;;;;5.04;2.67;;;;;;;21.89;48.23;99685.31;;;;-49
2019/11/11 15:38:18;;;;;;;3.20;2.85;;;;;;;21.90;48.21;99684.94;;;;-48
2019/11/11 15:41:18;;;;;;;3.13;2.65;;;;;;;21.88;48.08;99677.42;;;;-48
2019/11/11 15:44:18;;;;;;;2.88;2.55;;;;;;;21.90;48.09;99664.77;;;;-48
2019/11/11 15:47:18;;;;;;;3.37;2.61;;;;;;;21.94;47.94;99649.12;;;;-49
2019/11/11 15:50:18;;;;;;;4.59;2.84;;;;;;;21.91;47.92;99637.78;;;;-49
2019/11/11 15:53:18;;;;;;;4.68;2.91;;;;;;;21.90;48.14;99636.86;;;;-48
2019/11/11 15:56:17;;;;;;;3.39;2.79;;;;;;;21.93;47.98;99644.39;;;;-50
2019/11/11 15:59:17;;;;;;;3.95;2.71;;;;;;;21.91;47.74;99640.88;;;;-50
2019/11/11 16:02:18;;;;;;;4.35;2.64;;;;;;;21.89;47.71;99628.70;;;;-50
2019/11/11 16:05:18;;;;;;;5.59;2.69;;;;;;;21.91;47.47;99635.80;;;;-49
2019/11/11 16:08:18;;;;;;;5.07;2.61;;;;;;;21.88;47.49;99630.77;;;;-49
2019/11/11 16:11:18;;;;;;;3.57;2.53;;;;;;;21.87;47.69;99627.47;;;;-49
2019/11/11 16:14:17;;;;;;;2.73;2.51;;;;;;;21.85;47.71;99631.78;;;;-49
2019/11/11 16:17:18;;;;;;;4.31;2.57;;;;;;;21.83;47.74;99623.93;;;;-49
2019/11/11 16:20:18;;;;;;;3.24;2.57;;;;;;;21.81;47.67;99611.78;;;;-49
2019/11/11 16:23:18;;;;;;;4.19;2.58;;;;;;;21.79;47.85;99615.61;;;;-49
2019/11/11 16:26:18;;;;;;;4.97;2.67;;;;;;;21.77;47.78;99627.33;;;;-49
2019/11/11 16:29:18;;;;;;;2.51;2.31;;;;;;;21.76;47.70;99644.45;;;;-49
2019/11/11 16:32:18;;;;;;;3.03;2.67;;;;;;;21.74;47.82;99635.84;;;;-49
2019/11/11 16:35:18;;;;;;;2.99;2.55;;;;;;;21.72;47.82;99635.48;;;;-50
2019/11/11 16:38:18;;;;;;;3.03;2.56;;;;;;;21.70;47.74;99634.41;;;;-49
2019/11/11 16:41:18;;;;;;;2.78;2.49;;;;;;;21.68;47.74;99633.11;;;;-49
2019/11/11 16:44:19;;;;;;;3.05;2.40;;;;;;;21.67;47.70;99621.06;;;;-50
2019/11/11 16:47:18;;;;;;;2.85;2.57;;;;;;;21.64;47.65;99625.03;;;;-50
2019/11/11 16:50:18;;;;;;;2.83;2.54;;;;;;;21.62;47.81;99628.84;;;;-49
2019/11/11 16:53:17;;;;;;;3.19;2.46;;;;;;;21.60;47.80;99638.65;;;;-49